Airports United Kingdom Liverpool John Lennon Airport

Liverpool John Lennon Airport (EGGP / LPL)

Facts about Liverpool John Lennon Airport

Name Liverpool John Lennon Airport
City Liverpool
Country United Kingdom
ICAO code EGGP
IATA code LPL
Elevation 24.3840 meters (80 feet)

Weather

METAR

Metar data retrieved Saturday, 20 July 2024 at 00:55 UTC (28 minutes ago)

EGGP 200020Z VRB02KT CAVOK 18/16 Q1010

Live traffic

Navigraph Charts (account required)